Time;durP1;ratioP1;P1;durP2;ratioP2;P2;SDS_P1;SDS_P2;PMS_P1;PMS_P2;Temp;Humidity;BMP_temperature;BMP_pressure;BME280_temperature;BME280_humidity;BME280_pressure;Samples;Min_cycle;Max_cycle;Signal;HPM_P1;HPM_P2
2023/04/09 00:02:13;;;;;;;39.78;26.20;;;;;;;8.78;100.00;-18264.56;4975680;28;20081;-83
2023/04/09 00:04:38;;;;;;;43.85;26.25;;;;;;;8.79;100.00;-18264.84;4976259;28;20549;-83
2023/04/09 00:07:03;;;;;;;41.65;26.80;;;;;;;8.72;100.00;-18262.78;4974429;28;20046;-83
2023/04/09 00:09:29;;;;;;;37.88;25.48;;;;;;;8.70;100.00;-18262.22;4971740;28;20066;-83
2023/04/09 00:11:55;;;;;;;39.17;25.10;;;;;;;8.67;100.00;-18261.53;4974327;28;20055;-84
2023/04/09 00:14:21;;;;;;;40.55;26.33;;;;;;;8.62;100.00;-18260.16;4973481;28;20031;-83
2023/04/09 00:16:46;;;;;;;42.92;26.35;;;;;;;8.63;100.00;-18260.31;4977691;28;20049;-83
2023/04/09 00:19:12;;;;;;;36.97;25.42;;;;;;;8.66;100.00;-18261.28;4992092;28;20039;-83
2023/04/09 00:21:37;;;;;;;43.65;26.13;;;;;;;8.73;100.00;-18263.06;4972145;28;20104;-83
2023/04/09 00:24:03;;;;;;;40.08;25.00;;;;;;;8.63;100.00;-18260.31;4985832;28;20042;-83
2023/04/09 00:26:30;;;;;;;40.88;25.20;;;;;;;8.57;100.00;-18258.94;4968759;28;20089;-83
2023/04/09 00:28:55;;;;;;;42.78;26.38;;;;;;;8.68;100.00;-18261.81;4985467;28;20573;-83
2023/04/09 00:31:20;;;;;;;39.42;24.63;;;;;;;8.75;100.00;-18263.75;4967841;28;20039;-83
2023/04/09 00:33:46;;;;;;;38.70;25.05;;;;;;;8.75;100.00;-18263.59;4966202;28;20051;-83
2023/04/09 00:36:11;;;;;;;39.85;25.88;;;;;;;8.80;100.00;-18265.13;4967098;28;20043;-83
2023/04/09 00:38:36;;;;;;;39.15;25.88;;;;;;;8.76;100.00;-18264.00;4968820;28;20461;-83
2023/04/09 00:41:02;;;;;;;39.50;23.55;;;;;;;8.77;100.00;-18264.16;4953561;28;20117;-83
2023/04/09 00:43:27;;;;;;;38.42;25.08;;;;;;;8.71;100.00;-18262.50;4968904;28;20046;-83
2023/04/09 00:45:53;;;;;;;40.65;24.98;;;;;;;8.69;100.00;-18261.94;4969952;28;20042;-83
2023/04/09 00:48:18;;;;;;;40.40;24.02;;;;;;;8.63;100.00;-18260.44;4969670;28;20053;-83
2023/04/09 00:50:43;;;;;;;44.90;24.73;;;;;;;8.65;100.00;-18260.84;4971992;28;20137;-83
2023/04/09 00:53:09;;;;;;;39.40;26.30;;;;;;;8.68;100.00;-18261.81;4972060;28;20445;-83
2023/04/09 00:55:35;;;;;;;41.55;23.00;;;;;;;8.64;100.00;-18260.72;4971255;28;20074;-84
2023/04/09 00:58:01;;;;;;;41.92;24.95;;;;;;;8.66;100.00;-18261.13;4976358;28;20042;-84
2023/04/09 01:00:27;;;;;;;42.03;26.83;;;;;;;8.71;100.00;-18262.63;4971422;28;20050;-83
2023/04/09 01:02:54;;;;;;;43.40;25.67;;;;;;;8.59;100.00;-18259.34;4973034;28;20050;-83
2023/04/09 01:05:20;;;;;;;41.50;25.58;;;;;;;8.58;100.00;-18259.06;5005193;28;20106;-83
2023/04/09 01:07:59;;;;;;;39.83;25.35;;;;;;;8.50;100.00;-18257.00;4998429;28;20528;-84
2023/04/09 01:10:42;;;;;;;41.75;26.23;;;;;;;8.41;100.00;-18254.38;4975693;28;20053;-84
2023/04/09 01:13:19;;;;;;;38.80;24.98;;;;;;;8.30;100.00;-18251.63;4976174;28;20049;-84
2023/04/09 01:15:52;;;;;;;39.08;24.80;;;;;;;8.24;100.00;-18249.97;5004271;28;20053;-83
2023/04/09 01:18:24;;;;;;;44.25;26.88;;;;;;;8.22;100.00;-18249.41;4970280;28;20054;-84
2023/04/09 01:21:03;;;;;;;39.28;24.75;;;;;;;8.16;100.00;-18247.63;4975029;28;20066;-83
2023/04/09 01:23:56;;;;;;;43.42;25.17;;;;;;;8.13;100.00;-18247.09;4988009;28;20042;-84
2023/04/09 01:26:52;;;;;;;44.33;27.45;;;;;;;8.04;100.00;-18244.59;4973384;28;20055;-83
2023/04/09 01:29:20;;;;;;;39.78;26.30;;;;;;;8.05;100.00;-18244.75;4968951;28;20055;-84
2023/04/09 01:31:47;;;;;;;40.90;25.35;;;;;;;7.94;100.00;-18241.84;4973762;28;20050;-83
2023/04/09 01:34:14;;;;;;;41.33;28.08;;;;;;;7.93;100.00;-18241.44;4976305;28;20038;-84
2023/04/09 01:36:41;;;;;;;40.70;26.02;;;;;;;8.08;100.00;-18245.56;4971943;28;20473;-84
2023/04/09 01:39:07;;;;;;;42.45;27.17;;;;;;;8.06;100.00;-18245.16;4970617;28;20059;-83
2023/04/09 01:41:35;;;;;;;41.50;26.05;;;;;;;8.06;100.00;-18245.03;4971390;28;20215;-84
2023/04/09 01:44:02;;;;;;;42.55;26.67;;;;;;;7.93;100.00;-18241.44;4988393;28;20043;-83
2023/04/09 01:46:28;;;;;;;46.55;28.27;;;;;;;7.83;100.00;-18238.97;4971952;28;20053;-84
2023/04/09 01:48:55;;;;;;;41.47;25.80;;;;;;;7.81;100.00;-18238.41;4973374;28;20431;-83
2023/04/09 01:51:20;;;;;;;40.47;25.48;;;;;;;7.77;100.00;-18237.16;4971421;28;20526;-84
2023/04/09 01:53:46;;;;;;;45.17;27.77;;;;;;;7.72;100.00;-18235.78;4973776;28;20057;-83
2023/04/09 01:56:11;;;;;;;44.70;28.92;;;;;;;7.67;100.00;-18234.56;4972753;28;20111;-83
2023/04/09 01:58:36;;;;;;;44.75;28.60;;;;;;;7.63;100.00;-18233.44;4986776;28;20043;-83
2023/04/09 02:01:30;;;;;;;48.65;28.95;;;;;;;7.52;100.00;-18230.41;4972186;28;20047;-83
2023/04/09 02:04:01;;;;;;;47.10;29.42;;;;;;;7.46;100.00;-18228.91;4998682;28;20039;-84
2023/04/09 02:06:52;;;;;;;45.63;28.25;;;;;;;7.38;100.00;-18226.69;4974057;28;20493;-83
2023/04/09 02:09:20;;;;;;;46.67;28.25;;;;;;;7.31;100.00;-18224.91;4968933;28;20070;-84
2023/04/09 02:11:47;;;;;;;49.50;29.08;;;;;;;7.24;100.00;-18222.97;4972913;28;20141;-86
2023/04/09 02:14:15;;;;;;;46.85;29.13;;;;;;;7.22;100.00;-18222.44;4974331;28;20039;-83
2023/04/09 02:16:41;;;;;;;47.58;28.73;;;;;;;7.12;100.00;-18219.81;4976037;28;20039;-83
2023/04/09 02:19:06;;;;;;;47.45;29.08;;;;;;;6.98;100.00;-18216.09;4966987;28;20519;-83
2023/04/09 02:21:32;;;;;;;48.35;29.75;;;;;;;6.91;100.00;-18214.03;4971593;28;20090;-83
2023/04/09 02:23:57;;;;;;;48.30;29.08;;;;;;;6.86;100.00;-18212.78;4974110;28;20050;-83
2023/04/09 02:26:23;;;;;;;47.85;29.63;;;;;;;6.83;100.00;-18211.94;4972989;28;20049;-83
2023/04/09 02:28:49;;;;;;;54.40;31.00;;;;;;;6.81;100.00;-18211.41;4969975;28;20046;-84
2023/04/09 02:31:14;;;;;;;51.28;30.23;;;;;;;6.72;100.00;-18208.91;4971385;28;20174;-83
2023/04/09 02:33:40;;;;;;;55.83;31.90;;;;;;;6.64;100.00;-18206.84;4972323;28;20065;-83
2023/04/09 02:36:05;;;;;;;51.85;30.42;;;;;;;6.55;100.00;-18204.38;4969743;28;20031;-84
2023/04/09 02:38:31;;;;;;;50.95;30.83;;;;;;;6.52;100.00;-18203.53;4968288;28;20077;-83
2023/04/09 02:40:57;;;;;;;53.08;31.60;;;;;;;6.43;100.00;-18201.06;4970644;28;20762;-83
2023/04/09 02:43:22;;;;;;;56.80;32.45;;;;;;;6.38;100.00;-18199.69;4969915;28;20038;-83
2023/04/09 02:45:48;;;;;;;50.78;30.63;;;;;;;6.28;100.00;-18197.19;4970281;28;20062;-83
2023/04/09 02:48:13;;;;;;;52.60;33.03;;;;;;;6.26;100.00;-18196.50;4969428;28;20138;-83
2023/04/09 02:50:38;;;;;;;56.13;32.75;;;;;;;6.27;100.00;-18196.94;4971760;28;20444;-83
2023/04/09 02:53:04;;;;;;;52.58;31.75;;;;;;;6.18;100.00;-18194.31;4971327;28;20544;-83
2023/04/09 02:55:29;;;;;;;53.00;30.98;;;;;;;5.98;100.00;-18189.06;4969458;28;20071;-83
2023/04/09 02:57:55;;;;;;;54.42;31.08;;;;;;;5.91;100.00;-18187.00;4969595;28;20093;-82
2023/04/09 03:00:20;;;;;;;52.63;31.88;;;;;;;5.73;100.00;-18182.16;4969206;28;20098;-83
2023/04/09 03:02:45;;;;;;;54.83;31.92;;;;;;;5.71;100.00;-18181.63;4969408;28;20109;-83
2023/04/09 03:05:11;;;;;;;52.40;30.83;;;;;;;5.64;100.00;-18179.97;4970549;28;20053;-82
2023/04/09 03:07:36;;;;;;;49.63;29.40;;;;;;;5.61;100.00;-18179.13;4981278;28;20034;-83
2023/04/09 03:10:01;;;;;;;53.63;31.77;;;;;;;5.54;100.00;-18177.19;4969785;28;20054;-83
2023/04/09 03:12:27;;;;;;;51.63;29.60;;;;;;;5.47;100.00;-18175.13;4969858;28;20398;-83
2023/04/09 03:14:52;;;;;;;54.92;31.55;;;;;;;5.48;100.00;-18175.53;4970968;28;20046;-83
2023/04/09 03:17:17;;;;;;;54.50;30.45;;;;;;;5.48;100.00;-18175.53;4968574;28;20047;-83
2023/04/09 03:19:43;;;;;;;55.22;31.73;;;;;;;5.46;100.00;-18174.84;4969514;28;20088;-83
2023/04/09 03:22:08;;;;;;;52.88;31.38;;;;;;;5.32;100.00;-18171.13;4973278;28;20051;-83
2023/04/09 03:24:34;;;;;;;52.05;30.52;;;;;;;5.31;100.00;-18171.00;4974054;28;20046;-83
2023/04/09 03:26:59;;;;;;;52.58;31.05;;;;;;;5.27;100.00;-18169.75;4991159;28;20441;-83
2023/04/09 03:29:25;;;;;;;53.15;30.02;;;;;;;5.19;100.00;-18167.69;4974780;28;20486;-83
2023/04/09 03:31:50;;;;;;;55.95;31.38;;;;;;;5.18;100.00;-18167.53;4991485;28;20054;-83
2023/04/09 03:34:16;;;;;;;58.40;31.88;;;;;;;5.12;100.00;-18165.88;4958444;28;20545;-83
2023/04/09 03:36:41;;;;;;;57.58;32.13;;;;;;;5.06;100.00;-18164.09;4976644;28;20066;-83
2023/04/09 03:39:06;;;;;;;58.22;33.42;;;;;;;5.01;100.00;-18162.84;4994405;28;20452;-83
2023/04/09 03:41:32;;;;;;;54.88;32.17;;;;;;;5.02;100.00;-18163.13;4992488;28;20046;-83
2023/04/09 03:43:57;;;;;;;57.40;32.50;;;;;;;4.93;100.00;-18160.78;4974611;28;20042;-83
2023/04/09 03:46:23;;;;;;;61.40;33.72;;;;;;;4.97;100.00;-18161.88;4975963;28;20042;-83
2023/04/09 03:48:50;;;;;;;57.13;33.20;;;;;;;4.89;100.00;-18159.66;4993859;28;20069;-83
2023/04/09 03:51:16;;;;;;;52.75;30.00;;;;;;;4.83;100.00;-18158.00;4987138;28;20088;-84
2023/04/09 03:53:42;;;;;;;56.58;31.42;;;;;;;4.77;100.00;-18156.22;4981957;28;20490;-83
2023/04/09 03:56:07;;;;;;;55.97;32.60;;;;;;;4.79;100.00;-18156.91;4980589;28;20043;-84
2023/04/09 03:58:33;;;;;;;51.95;30.60;;;;;;;4.66;100.00;-18153.47;4979814;28;20039;-83
2023/04/09 04:00:59;;;;;;;52.58;31.25;;;;;;;4.59;100.00;-18151.53;4977447;28;20050;-83
2023/04/09 04:03:24;;;;;;;54.30;30.48;;;;;;;4.57;100.00;-18150.97;4984000;28;20417;-83
2023/04/09 04:05:49;;;;;;;59.35;30.70;;;;;;;4.61;100.00;-18151.94;4979916;28;20321;-83
2023/04/09 04:08:15;;;;;;;57.85;33.90;;;;;;;4.60;100.00;-18151.78;4993126;28;20063;-83
2023/04/09 04:10:40;;;;;;;58.25;33.95;;;;;;;4.60;100.00;-18151.66;4979074;28;20042;-83
2023/04/09 04:13:07;;;;;;;59.28;32.35;;;;;;;4.61;100.00;-18152.06;4978958;28;20133;-83
2023/04/09 04:15:33;;;;;;;58.38;34.08;;;;;;;4.53;100.00;-18149.88;4993239;28;20130;-84
2023/04/09 04:17:58;;;;;;;61.17;31.92;;;;;;;4.58;100.00;-18151.13;4981754;28;20067;-83
2023/04/09 04:20:24;;;;;;;62.38;34.75;;;;;;;4.59;100.00;-18151.53;4975652;28;20039;-83
2023/04/09 04:22:49;;;;;;;64.72;34.47;;;;;;;4.52;100.00;-18149.72;4977173;28;20067;-83
2023/04/09 04:25:14;;;;;;;61.58;32.85;;;;;;;4.47;100.00;-18148.34;4972662;28;20084;-83
2023/04/09 04:27:41;;;;;;;59.65;33.35;;;;;;;4.50;100.00;-18149.03;4987253;28;20046;-83
2023/04/09 04:30:07;;;;;;;59.65;32.90;;;;;;;4.49;100.00;-18148.91;4974626;28;20049;-84
2023/04/09 04:32:33;;;;;;;60.33;34.08;;;;;;;4.46;100.00;-18147.94;4973539;28;20046;-83
2023/04/09 04:34:58;;;;;;;59.67;32.67;;;;;;;4.42;100.00;-18146.97;4971858;28;20054;-83
2023/04/09 04:37:23;;;;;;;65.65;36.33;;;;;;;4.42;100.00;-18146.81;4972824;28;20039;-83
2023/04/09 04:39:49;;;;;;;68.00;36.83;;;;;;;4.38;100.00;-18145.88;4971995;28;20137;-83
2023/04/09 04:42:14;;;;;;;60.78;33.42;;;;;;;4.31;100.00;-18143.94;4974234;28;20115;-83
2023/04/09 04:44:39;;;;;;;61.13;33.40;;;;;;;4.26;100.00;-18142.56;4973416;28;20042;-83
2023/04/09 04:47:05;;;;;;;62.70;35.05;;;;;;;4.19;100.00;-18140.63;4972926;28;20057;-83
2023/04/09 04:49:30;;;;;;;59.50;33.30;;;;;;;4.05;100.00;-18136.88;4969891;28;20031;-83
2023/04/09 04:51:56;;;;;;;60.38;32.97;;;;;;;4.09;100.00;-18138.00;4973987;28;20043;-83
2023/04/09 04:54:21;;;;;;;60.47;33.17;;;;;;;4.01;100.00;-18135.78;4974601;28;20042;-83
2023/04/09 04:56:46;;;;;;;61.80;33.10;;;;;;;3.85;100.00;-18131.50;4973623;28;20051;-83
2023/04/09 04:59:12;;;;;;;63.58;33.47;;;;;;;3.86;100.00;-18131.78;4978673;28;20441;-83
2023/04/09 05:01:37;;;;;;;60.08;32.38;;;;;;;3.84;100.00;-18131.34;4970471;28;20042;-83
2023/04/09 05:04:03;;;;;;;65.50;34.70;;;;;;;3.81;100.00;-18130.53;4974767;28;20049;-83
2023/04/09 05:06:28;;;;;;;61.05;32.85;;;;;;;3.81;100.00;-18130.38;4972782;28;20054;-83
2023/04/09 05:08:56;;;;;;;70.03;36.90;;;;;;;3.82;100.00;-18130.66;4974229;28;20057;-83
2023/04/09 05:11:23;;;;;;;72.83;37.40;;;;;;;3.84;100.00;-18131.34;4971064;28;20034;-83
2023/04/09 05:13:49;;;;;;;73.57;38.55;;;;;;;3.93;100.00;-18133.56;4988817;28;20046;-83
2023/04/09 05:16:16;;;;;;;67.68;37.75;;;;;;;3.98;100.00;-18134.94;4971017;28;20035;-84
2023/04/09 05:18:41;;;;;;;64.07;35.00;;;;;;;4.03;100.00;-18136.47;4973164;28;20039;-83
2023/04/09 05:21:07;;;;;;;67.72;37.53;;;;;;;3.98;100.00;-18134.94;4973133;28;20395;-83
2023/04/09 05:23:32;;;;;;;64.90;33.92;;;;;;;3.94;100.00;-18133.84;4972621;28;20042;-83
2023/04/09 05:25:57;;;;;;;75.60;38.75;;;;;;;3.93;100.00;-18133.56;4971289;28;20038;-83
2023/04/09 05:28:23;;;;;;;70.45;39.08;;;;;;;3.93;100.00;-18133.72;4971741;28;20062;-86
2023/04/09 05:30:48;;;;;;;70.18;37.42;;;;;;;3.89;100.00;-18132.59;4972063;28;20114;-83
2023/04/09 05:33:14;;;;;;;72.15;38.20;;;;;;;3.94;100.00;-18133.97;4972819;28;20047;-83
2023/04/09 05:35:39;;;;;;;76.25;39.17;;;;;;;3.98;100.00;-18134.94;4972692;28;20047;-83
2023/04/09 05:38:05;;;;;;;73.20;40.25;;;;;;;4.04;100.00;-18136.59;4969925;28;20084;-83
2023/04/09 05:40:30;;;;;;;74.88;41.50;;;;;;;4.04;100.00;-18136.59;4981687;28;20049;-83
2023/04/09 05:42:55;;;;;;;84.85;44.30;;;;;;;4.06;100.00;-18137.31;4992684;28;20070;-82
2023/04/09 05:45:21;;;;;;;77.75;41.25;;;;;;;4.17;100.00;-18140.19;4990241;28;20038;-83
2023/04/09 05:47:46;;;;;;;76.55;40.15;;;;;;;4.22;100.00;-18141.56;5010652;28;20053;-82
2023/04/09 05:50:12;;;;;;;78.57;41.78;;;;;;;4.28;100.00;-18143.22;5004542;28;20043;-83
2023/04/09 05:52:37;;;;;;;76.95;39.08;;;;;;;4.29;100.00;-18143.50;4975992;28;20046;-83
2023/04/09 05:55:04;;;;;;;78.78;38.72;;;;;;;4.40;100.00;-18146.28;4974656;28;20062;-83
2023/04/09 05:57:30;;;;;;;75.78;40.75;;;;;;;4.43;100.00;-18147.25;4972301;28;20039;-83
2023/04/09 05:59:56;;;;;;;76.63;40.08;;;;;;;4.48;100.00;-18148.47;4987730;28;20115;-83
2023/04/09 06:02:21;;;;;;;82.03;41.97;;;;;;;4.57;100.00;-18150.97;4974454;28;20115;-83
2023/04/09 06:04:47;;;;;;;80.72;41.65;;;;;;;4.59;100.00;-18151.38;4973172;28;20043;-83
2023/04/09 06:07:12;;;;;;;78.72;40.92;;;;;;;4.65;100.00;-18153.03;4973630;28;20110;-83
2023/04/09 06:09:37;;;;;;;81.30;43.17;;;;;;;4.73;100.00;-18155.38;4972433;28;20053;-83
2023/04/09 06:12:03;;;;;;;81.78;43.97;;;;;;;4.78;100.00;-18156.50;4974464;28;20065;-83
2023/04/09 06:14:31;;;;;;;84.18;43.00;;;;;;;4.84;100.00;-18158.16;4972232;28;20070;-82
2023/04/09 06:16:57;;;;;;;76.77;41.60;;;;;;;4.89;100.00;-18159.66;4988590;28;20580;-83
2023/04/09 06:19:23;;;;;;;81.43;41.80;;;;;;;4.98;100.00;-18162.03;4973236;28;20046;-83
2023/04/09 06:21:48;;;;;;;80.28;41.28;;;;;;;5.07;100.00;-18164.38;4971338;28;20054;-82
2023/04/09 06:24:14;;;;;;;78.75;42.13;;;;;;;5.16;100.00;-18166.84;4971684;28;20058;-83
2023/04/09 06:26:39;;;;;;;80.20;42.35;;;;;;;5.25;100.00;-18169.19;4969062;28;20045;-83
2023/04/09 06:29:05;;;;;;;78.75;42.65;;;;;;;5.32;100.00;-18171.25;4969867;28;20045;-83
2023/04/09 06:31:31;;;;;;;81.10;43.33;;;;;;;5.37;100.00;-18172.50;4971084;28;20105;-83
2023/04/09 06:33:56;;;;;;;77.85;41.67;;;;;;;5.52;100.00;-18176.50;4973505;28;20038;-83
2023/04/09 06:36:22;;;;;;;75.15;41.97;;;;;;;5.62;100.00;-18179.41;4974700;28;20382;-83
2023/04/09 06:38:47;;;;;;;76.10;40.72;;;;;;;5.71;100.00;-18181.75;4972384;28;20058;-83
2023/04/09 06:41:13;;;;;;;78.40;41.78;;;;;;;5.79;100.00;-18183.81;4976282;28;20039;-83
2023/04/09 06:43:39;;;;;;;72.88;39.40;;;;;;;5.88;100.00;-18186.31;4971225;28;20519;-83
2023/04/09 06:46:05;;;;;;;75.10;42.15;;;;;;;5.95;100.00;-18188.22;4973202;28;20038;-83
2023/04/09 06:48:30;;;;;;;75.47;39.75;;;;;;;6.02;100.00;-18190.16;4978042;28;20061;-85
2023/04/09 06:50:56;;;;;;;75.30;41.03;;;;;;;6.13;100.00;-18193.06;4972113;28;20336;-84
2023/04/09 06:53:21;;;;;;;79.30;42.25;;;;;;;6.21;100.00;-18195.28;4954946;28;20042;-85
2023/04/09 06:55:47;;;;;;;67.93;37.30;;;;;;;6.28;100.00;-18197.19;4942698;28;20049;-82
2023/04/09 06:58:15;;;;;;;70.20;39.45;;;;;;;6.39;100.00;-18200.09;4921392;28;20044;-83
2023/04/09 07:00:41;;;;;;;66.07;39.78;;;;;;;6.48;100.00;-18202.44;4942584;28;20450;-85
2023/04/09 07:03:07;;;;;;;70.05;38.90;;;;;;;6.59;100.00;-18205.34;4947368;28;20467;-85
2023/04/09 07:05:33;;;;;;;65.28;37.78;;;;;;;6.77;100.00;-18210.31;4937647;28;20043;-85
2023/04/09 07:08:03;;;;;;;64.10;36.38;;;;;;;6.86;100.00;-18212.66;4928275;28;20059;-85
2023/04/09 07:10:28;;;;;;;;;;;;;;;6.87;100.00;-18213.06;4895801;29;20072;-84
2023/04/09 07:12:53;;;;;;;59.75;35.35;;;;;;;6.92;100.00;-18214.44;4970181;22;19980;-78
2023/04/09 07:15:19;;;;;;;65.45;37.08;;;;;;;6.95;100.00;-18215.25;4969957;28;20047;-78
2023/04/09 07:17:44;;;;;;;60.85;34.78;;;;;;;7.04;100.00;-18217.47;4971879;28;20050;-78
2023/04/09 07:20:10;;;;;;;62.97;36.60;;;;;;;7.18;100.00;-18221.31;4995084;23;20058;-85
2023/04/09 07:22:35;;;;;;;57.17;35.05;;;;;;;7.23;100.00;-18222.69;5006607;28;20054;-85
2023/04/09 07:25:01;;;;;;;60.00;34.80;;;;;;;7.33;100.00;-18225.47;4993197;28;20038;-85
2023/04/09 07:27:27;;;;;;;56.78;32.22;;;;;;;7.39;100.00;-18226.97;4988072;28;20066;-84
2023/04/09 07:29:56;;;;;;;58.50;32.83;;;;;;;7.46;100.00;-18228.91;4988622;28;20047;-84
2023/04/09 07:32:23;;;;;;;56.50;32.55;;;;;;;7.54;100.00;-18230.97;4986008;28;20520;-84
2023/04/09 07:34:51;;;;;;;56.35;31.90;;;;;;;7.64;100.00;-18233.72;4991590;28;20057;-85
2023/04/09 07:37:17;;;;;;;54.67;32.67;;;;;;;7.78;100.00;-18237.44;4990439;28;20471;-85
2023/04/09 07:39:42;;;;;;;51.20;29.27;;;;;;;7.83;100.00;-18238.97;4994868;28;20080;-85
2023/04/09 07:42:07;;;;;;;51.00;32.35;;;;;;;7.85;100.00;-18239.50;5002693;28;20046;-84
2023/04/09 07:44:35;;;;;;;51.42;30.55;;;;;;;7.91;100.00;-18241.03;4985288;28;20521;-84
2023/04/09 07:47:01;;;;;;;53.33;32.67;;;;;;;8.05;100.00;-18244.75;4986459;28;20042;-84
2023/04/09 07:49:26;;;;;;;50.97;30.08;;;;;;;8.17;100.00;-18248.03;4981255;28;20073;-84
2023/04/09 07:51:52;;;;;;;47.78;29.30;;;;;;;8.26;100.00;-18250.53;4984616;28;20038;-84
2023/04/09 07:54:18;;;;;;;49.42;27.65;;;;;;;8.44;100.00;-18255.22;4987498;28;20042;-84
2023/04/09 07:56:44;;;;;;;47.50;30.67;;;;;;;8.51;100.00;-18257.13;4986505;28;20081;-84
2023/04/09 07:59:09;;;;;;;45.55;28.98;;;;;;;8.56;100.00;-18258.50;4980592;28;20399;-84
2023/04/09 08:01:35;;;;;;;49.17;29.50;;;;;;;8.68;100.00;-18261.81;4987615;28;20133;-84
2023/04/09 08:04:01;;;;;;;46.58;28.65;;;;;;;8.75;100.00;-18263.75;4984789;28;20083;-84
2023/04/09 08:06:26;;;;;;;42.83;24.75;;;;;;;8.67;100.00;-18261.53;4981151;28;20513;-84
2023/04/09 08:08:52;;;;;;;43.58;26.75;;;;;;;8.79;100.00;-18264.84;4984366;28;22198;-84
2023/04/09 08:11:23;;;;;;;41.67;25.67;;;;;;;8.96;100.00;-18269.38;4992860;28;20130;-84
2023/04/09 08:13:49;;;;;;;42.50;27.17;;;;;;;9.11;100.00;-18273.38;4990311;28;20069;-84
2023/04/09 08:16:14;;;;;;;40.22;25.55;;;;;;;9.21;100.00;-18276.00;4990253;28;20581;-84
2023/04/09 08:18:40;;;;;;;42.30;25.83;;;;;;;9.21;100.00;-18276.00;4990570;28;20050;-84
2023/04/09 08:21:05;;;;;;;42.58;24.08;;;;;;;9.29;100.00;-18278.06;4990192;28;20061;-84
2023/04/09 08:23:30;;;;;;;40.22;24.98;;;;;;;9.30;100.00;-18278.31;4990293;28;20046;-84
2023/04/09 08:25:56;;;;;;;36.92;22.80;;;;;;;9.41;100.00;-18281.34;4986556;28;20039;-84
2023/04/09 08:28:22;;;;;;;35.20;23.48;;;;;;;9.44;100.00;-18282.19;4988000;28;20864;-84
2023/04/09 08:30:47;;;;;;;34.47;21.00;;;;;;;9.52;100.00;-18284.38;4988923;28;20100;-84
2023/04/09 08:33:13;;;;;;;30.08;18.98;;;;;;;9.64;100.00;-18287.69;4988592;28;20050;-84
2023/04/09 08:35:40;;;;;;;33.88;19.73;;;;;;;9.73;100.00;-18289.88;4990390;28;20034;-84
2023/04/09 08:38:05;;;;;;;30.77;19.35;;;;;;;9.78;100.00;-18291.38;4990029;28;20045;-84
2023/04/09 08:40:40;;;;;;;30.42;20.70;;;;;;;9.84;100.00;-18292.91;4989174;28;20030;-84
2023/04/09 08:43:06;;;;;;;30.23;18.30;;;;;;;10.04;100.00;-18298.41;4990308;28;20537;-85
2023/04/09 08:45:32;;;;;;;30.08;19.25;;;;;;;10.21;100.00;-18302.78;4991449;28;20125;-84
2023/04/09 08:47:58;;;;;;;28.27;17.45;;;;;;;10.35;100.00;-18306.66;4988730;28;20096;-84
2023/04/09 08:50:26;;;;;;;26.60;17.75;;;;;;;10.36;100.00;-18307.06;4988867;28;20153;-85
2023/04/09 08:52:52;;;;;;;24.60;16.60;;;;;;;10.54;100.00;-18311.75;4986656;28;20039;-84
2023/04/09 08:55:17;;;;;;;26.20;16.40;;;;;;;10.54;100.00;-18311.88;4987283;28;20041;-84
2023/04/09 08:57:43;;;;;;;29.42;17.52;;;;;;;10.56;100.00;-18312.28;4990024;28;20065;-84
2023/04/09 09:00:08;;;;;;;26.00;16.63;;;;;;;10.71;100.00;-18316.28;4988557;28;20562;-84
2023/04/09 09:02:34;;;;;;;25.15;16.63;;;;;;;10.78;100.00;-18318.19;4981250;28;20039;-84
2023/04/09 09:05:00;;;;;;;25.80;15.05;;;;;;;10.83;100.00;-18319.56;4987553;28;20038;-84
2023/04/09 09:07:29;;;;;;;22.98;15.38;;;;;;;10.81;100.00;-18319.00;4983539;28;20409;-84
2023/04/09 09:10:02;;;;;;;24.48;15.00;;;;;;;10.94;100.00;-18322.59;4987437;28;20595;-84
2023/04/09 09:12:31;;;;;;;21.10;12.18;;;;;;;11.12;100.00;-18327.41;4983908;28;20042;-84
2023/04/09 09:14:57;;;;;;;20.58;14.35;;;;;;;11.10;100.00;-18326.84;4990482;28;20042;-84
2023/04/09 09:17:23;;;;;;;20.02;12.25;;;;;;;11.16;100.00;-18328.34;4989589;28;20042;-84
2023/04/09 09:19:49;;;;;;;19.52;13.70;;;;;;;11.28;100.00;-18331.66;4990303;28;20524;-84
2023/04/09 09:22:14;;;;;;;16.85;11.77;;;;;;;11.33;100.00;-18332.88;4980666;28;20046;-84
2023/04/09 09:24:51;;;;;;;17.63;11.55;;;;;;;11.51;100.00;-18337.97;4987216;28;20086;-84
2023/04/09 09:27:35;;;;;;;17.63;11.80;;;;;;;11.51;100.00;-18337.84;4982647;28;20047;-85
2023/04/09 09:30:01;;;;;;;18.38;12.38;;;;;;;11.59;100.00;-18339.88;5000398;28;20053;-86
2023/04/09 09:32:27;;;;;;;17.25;11.82;;;;;;;11.50;100.00;-18337.56;4989064;28;20113;-84
2023/04/09 09:35:04;;;;;;;16.13;11.07;;;;;;;11.68;100.00;-18342.34;4986953;28;20061;-84
2023/04/09 09:37:30;;;;;;;18.70;12.60;;;;;;;11.88;100.00;-18347.84;4987872;28;20061;-84
2023/04/09 09:39:56;;;;;;;20.05;12.50;;;;;;;11.83;100.00;-18346.47;4987550;28;20417;-84
2023/04/09 09:42:21;;;;;;;13.43;10.40;;;;;;;11.92;100.00;-18348.94;4982214;28;20058;-85
2023/04/09 09:44:47;;;;;;;16.13;11.40;;;;;;;11.99;100.00;-18350.59;5003277;28;20046;-83
2023/04/09 09:47:13;;;;;;;13.85;9.80;;;;;;;12.07;100.00;-18352.78;4983683;28;20035;-85
2023/04/09 09:49:39;;;;;;;14.00;8.10;;;;;;;11.95;100.00;-18349.63;4985914;28;20129;-84
2023/04/09 09:52:09;;;;;;;13.35;8.80;;;;;;;11.94;100.00;-18349.38;4991039;28;20092;-85
2023/04/09 09:54:43;;;;;;;16.88;9.68;;;;;;;12.00;100.00;-18351.00;4989955;28;20695;-84
2023/04/09 09:57:12;;;;;;;15.25;10.07;;;;;;;12.14;100.00;-18354.84;4987328;28;20078;-84
2023/04/09 09:59:39;;;;;;;;;;;;;;;12.22;100.00;-18356.91;4986786;28;20125;-84
2023/04/09 10:02:12;;;;;;;13.18;8.15;;;;;;;12.17;100.00;-18355.69;4984142;28;19925;-85
2023/04/09 10:04:38;;;;;;;11.90;8.20;;;;;;;12.20;100.00;-18356.38;4981572;28;20041;-84
2023/04/09 10:07:05;;;;;;;12.82;9.13;;;;;;;12.35;100.00;-18360.47;5007036;28;20501;-85
2023/04/09 10:09:34;;;;;;;13.75;8.60;;;;;;;12.31;100.00;-18359.38;4985812;28;20543;-85
2023/04/09 10:11:59;;;;;;;15.23;9.60;;;;;;;12.34;100.00;-18360.19;4988764;28;20128;-84
2023/04/09 10:14:27;;;;;;;12.57;7.95;;;;;;;12.44;100.00;-18362.81;5007460;28;20593;-85
2023/04/09 10:16:53;;;;;;;11.48;7.57;;;;;;;12.57;100.00;-18366.38;4989594;28;20057;-85
2023/04/09 10:19:19;;;;;;;12.48;8.88;;;;;;;12.65;100.00;-18368.44;4993660;28;20042;-84
2023/04/09 10:22:09;;;;;;;13.32;8.20;;;;;;;12.68;100.00;-18369.13;4989081;28;20513;-84
2023/04/09 10:24:35;;;;;;;13.52;9.38;;;;;;;12.83;100.00;-18373.22;4983270;28;20057;-85
2023/04/09 10:27:11;;;;;;;14.25;8.93;;;;;;;12.90;100.00;-18375.00;5005746;28;20049;-82
2023/04/09 10:29:45;;;;;;;14.75;9.85;;;;;;;13.01;100.00;-18378.03;4984188;28;20060;-82
2023/04/09 10:32:11;;;;;;;14.68;9.45;;;;;;;13.07;100.00;-18379.69;4985340;28;20383;-82
2023/04/09 10:34:39;;;;;;;14.20;9.82;;;;;;;13.08;100.00;-18379.94;4985366;28;21623;-82
2023/04/09 10:37:08;;;;;;;16.55;10.20;;;;;;;13.02;100.00;-18378.44;4986605;28;20050;-84
2023/04/09 10:39:37;;;;;;;;;;;;;;;12.94;100.00;-18376.09;4989328;28;20038;-83
2023/04/09 10:42:10;;;;;;;17.17;10.52;;;;;;;12.78;100.00;-18372.00;4985617;28;20021;-84
2023/04/09 10:44:40;;;;;;;15.52;9.90;;;;;;;12.75;100.00;-18371.19;4989409;28;20069;-84
2023/04/09 10:47:06;;;;;;;15.40;10.43;;;;;;;12.78;100.00;-18371.88;4990513;28;20129;-84
2023/04/09 10:49:39;;;;;;;16.67;10.63;;;;;;;12.96;100.00;-18376.66;4984990;28;20057;-85
2023/04/09 10:52:12;;;;;;;18.40;12.10;;;;;;;13.16;100.00;-18382.13;4987312;28;20112;-85
2023/04/09 10:54:42;;;;;;;14.38;9.75;;;;;;;13.15;100.00;-18381.88;4987541;28;20086;-84
2023/04/09 10:57:08;;;;;;;15.85;10.73;;;;;;;13.01;100.00;-18378.16;5003463;28;20089;-84
2023/04/09 10:59:34;;;;;;;14.02;10.10;;;;;;;13.22;100.00;-18383.78;4988327;28;20133;-84
2023/04/09 11:01:59;;;;;;;13.43;10.38;;;;;;;13.37;100.00;-18387.63;4987072;28;20046;-84
2023/04/09 11:04:57;;;;;;;14.85;9.43;;;;;;;13.54;100.00;-18392.41;4989231;28;20040;-85
2023/04/09 11:07:24;;;;;;;12.38;7.65;;;;;;;13.56;100.00;-18392.84;4999371;28;20038;-82
2023/04/09 11:09:50;;;;;;;13.40;8.20;;;;;;;13.47;89.89;-18390.50;4986731;28;20047;-84